Time;durP1;ratioP1;P1;durP2;ratioP2;P2;SDS_P1;SDS_P2;PMS_P1;PMS_P2;Temp;Humidity;BMP_temperature;BMP_pressure;BME280_temperature;BME280_humidity;BME280_pressure;Samples;Min_cycle;Max_cycle;Signal;HPM_P1;HPM_P2
2023/10/29 00:01:06;;;;;;;1.93;1.30;;;;;;;;;;5069923;28;20211;-79
2023/10/29 00:03:33;;;;;;;3.73;1.70;;;;;;;;;;5071738;28;20591;-79
2023/10/29 00:06:00;;;;;;;3.20;1.60;;;;;;;;;;5072234;28;20225;-79
2023/10/29 00:08:28;;;;;;;3.10;1.60;;;;;;;;;;5071820;28;20231;-79
2023/10/29 00:10:55;;;;;;;3.53;1.17;;;;;;;;;;5071405;28;20684;-79
2023/10/29 00:13:23;;;;;;;3.90;1.63;;;;;;;;;;5071876;28;20205;-80
2023/10/29 00:15:49;;;;;;;2.17;1.63;;;;;;;;;;5071451;28;20204;-79
2023/10/29 00:18:17;;;;;;;2.80;1.37;;;;;;;;;;5071546;28;20592;-79
2023/10/29 00:20:44;;;;;;;4.10;1.80;;;;;;;;;;5071176;28;20699;-79
2023/10/29 00:23:11;;;;;;;1.40;1.30;;;;;;;;;;5071602;28;20201;-80
2023/10/29 00:25:40;;;;;;;5.17;1.40;;;;;;;;;;5071638;28;20707;-79
2023/10/29 00:28:07;;;;;;;5.23;1.40;;;;;;;;;;5071176;28;20235;-79
2023/10/29 00:30:34;;;;;;;2.93;1.60;;;;;;;;;;5071336;28;20235;-78
2023/10/29 00:33:01;;;;;;;2.57;1.60;;;;;;;;;;5065728;28;20650;-80
2023/10/29 00:35:28;;;;;;;3.03;1.70;;;;;;;;;;5071535;28;20200;-79
2023/10/29 00:37:54;;;;;;;2.43;1.33;;;;;;;;;;5071106;28;20201;-78
2023/10/29 00:40:21;;;;;;;2.67;1.60;;;;;;;;;;5070965;28;20215;-79
2023/10/29 00:42:50;;;;;;;1.93;1.30;;;;;;;;;;5071093;28;20253;-79
2023/10/29 00:45:17;;;;;;;4.97;1.53;;;;;;;;;;5071348;28;20197;-79
2023/10/29 00:47:43;;;;;;;2.13;1.37;;;;;;;;;;5070765;28;20215;-79
2023/10/29 00:50:10;;;;;;;1.83;1.57;;;;;;;;;;5071079;28;20232;-78
2023/10/29 00:52:38;;;;;;;2.27;1.30;;;;;;;;;;5070853;28;20656;-79
2023/10/29 00:55:05;;;;;;;2.80;1.50;;;;;;;;;;5070984;28;20226;-78
2023/10/29 00:57:32;;;;;;;2.80;1.53;;;;;;;;;;5070140;28;20232;-79
2023/10/29 01:00:01;;;;;;;4.10;1.40;;;;;;;;;;5070799;28;20703;-78
2023/10/29 01:02:27;;;;;;;3.90;1.53;;;;;;;;;;5059552;28;20201;-78
2023/10/29 01:04:54;;;;;;;3.50;1.37;;;;;;;;;;5070312;28;20189;-78
2023/10/29 01:07:21;;;;;;;5.80;2.03;;;;;;;;;;5070447;28;20211;-78
2023/10/29 01:09:50;;;;;;;2.10;1.57;;;;;;;;;;5065024;28;20220;-79
2023/10/29 01:12:17;;;;;;;3.40;1.30;;;;;;;;;;5064966;28;20210;-79
2023/10/29 01:14:44;;;;;;;1.80;1.10;;;;;;;;;;5071118;28;20197;-78
2023/10/29 01:17:12;;;;;;;3.00;1.53;;;;;;;;;;5070727;28;20211;-79
2023/10/29 01:19:39;;;;;;;3.93;1.47;;;;;;;;;;5070611;28;20204;-78
2023/10/29 01:22:06;;;;;;;2.60;1.57;;;;;;;;;;5070217;28;20207;-78
2023/10/29 01:24:34;;;;;;;2.87;1.40;;;;;;;;;;5069955;28;20640;-78
2023/10/29 01:27:03;;;;;;;2.20;1.33;;;;;;;;;;5070396;28;20585;-78
2023/10/29 01:29:30;;;;;;;4.13;1.60;;;;;;;;;;5069840;28;20235;-79
2023/10/29 01:31:57;;;;;;;2.00;1.37;;;;;;;;;;5070180;28;20199;-78
2023/10/29 01:34:25;;;;;;;3.07;1.60;;;;;;;;;;5070806;28;20262;-78
2023/10/29 01:36:52;;;;;;;2.10;1.60;;;;;;;;;;5069518;28;20303;-78
2023/10/29 01:39:19;;;;;;;4.17;1.40;;;;;;;;;;5070495;28;20205;-79
2023/10/29 01:41:46;;;;;;;1.80;1.50;;;;;;;;;;5070150;28;20260;-78
2023/10/29 01:44:12;;;;;;;2.57;1.50;;;;;;;;;;5070640;28;20223;-78
2023/10/29 01:46:39;;;;;;;2.60;1.30;;;;;;;;;;5067348;28;20231;-78
2023/10/29 01:49:09;;;;;;;2.87;1.37;;;;;;;;;;5070480;28;20267;-79
2023/10/29 01:51:37;;;;;;;3.50;2.03;;;;;;;;;;5072169;28;20315;-79
2023/10/29 01:54:04;;;;;;;3.13;1.40;;;;;;;;;;5074475;28;20671;-78
2023/10/29 01:56:31;;;;;;;1.77;1.33;;;;;;;;;;5073642;28;20206;-78
2023/10/29 01:58:58;;;;;;;1.60;1.33;;;;;;;;;;5074861;28;20235;-78
2023/10/29 02:01:25;;;;;;;2.73;1.70;;;;;;;;;;5068429;28;20192;-78
2023/10/29 02:03:52;;;;;;;1.57;1.40;;;;;;;;;;5067710;28;20207;-79
2023/10/29 02:06:19;;;;;;;2.20;1.27;;;;;;;;;;5062387;28;20236;-79
2023/10/29 02:08:48;;;;;;;3.37;1.67;;;;;;;;;;5072875;28;20236;-78
2023/10/29 02:11:14;;;;;;;3.30;1.77;;;;;;;;;;5068454;28;20208;-78
2023/10/29 02:13:41;;;;;;;2.93;1.50;;;;;;;;;;5067942;28;20210;-78
2023/10/29 02:16:10;;;;;;;3.30;1.50;;;;;;;;;;5074128;28;20210;-79
2023/10/29 02:18:37;;;;;;;3.50;1.40;;;;;;;;;;5073682;28;20280;-78
2023/10/29 02:21:04;;;;;;;2.83;1.53;;;;;;;;;;5074540;28;20228;-78
2023/10/29 02:23:34;;;;;;;2.60;1.30;;;;;;;;;;5067522;28;20202;-79
2023/10/29 02:26:00;;;;;;;1.30;1.20;;;;;;;;;;5062959;28;20199;-79
2023/10/29 02:28:27;;;;;;;2.37;1.40;;;;;;;;;;5073958;28;20212;-78
2023/10/29 02:30:54;;;;;;;2.57;1.30;;;;;;;;;;5073107;28;20694;-79
2023/10/29 02:33:21;;;;;;;1.90;1.60;;;;;;;;;;5073704;28;20201;-79
2023/10/29 02:35:47;;;;;;;2.57;1.40;;;;;;;;;;5065878;28;20208;-78
2023/10/29 02:38:16;;;;;;;1.80;1.63;;;;;;;;;;5071181;28;20213;-79
2023/10/29 02:40:44;;;;;;;3.17;1.50;;;;;;;;;;5056766;28;20317;-78
2023/10/29 02:43:13;;;;;;;2.63;1.40;;;;;;;;;;5073281;28;20207;-78
2023/10/29 02:45:40;;;;;;;2.40;2.03;;;;;;;;;;5073736;28;20209;-79
2023/10/29 02:48:07;;;;;;;1.57;1.47;;;;;;;;;;5073404;28;20195;-78
2023/10/29 02:50:34;;;;;;;4.07;1.50;;;;;;;;;;5073331;28;20230;-78
2023/10/29 02:53:01;;;;;;;2.37;1.43;;;;;;;;;;5072714;28;20199;-79
2023/10/29 02:55:28;;;;;;;2.83;1.60;;;;;;;;;;5072567;28;20200;-79
2023/10/29 02:57:56;;;;;;;3.97;1.33;;;;;;;;;;5066007;28;20213;-79
2023/10/29 03:00:23;;;;;;;3.23;1.77;;;;;;;;;;5073088;28;20708;-79
2023/10/29 03:02:49;;;;;;;1.80;1.30;;;;;;;;;;5069421;28;20209;-79
2023/10/29 03:05:16;;;;;;;2.40;1.47;;;;;;;;;;5062232;28;20200;-79
2023/10/29 03:07:43;;;;;;;4.13;1.60;;;;;;;;;;5063125;28;20591;-78
2023/10/29 03:10:10;;;;;;;1.43;1.33;;;;;;;;;;5056994;28;20232;-78
2023/10/29 03:12:37;;;;;;;3.17;1.47;;;;;;;;;;5053018;28;20262;-78
2023/10/29 03:15:07;;;;;;;2.60;2.40;;;;;;;;;;5055470;28;20205;-78
2023/10/29 03:17:34;;;;;;;6.67;2.97;;;;;;;;;;5051462;28;20648;-78
2023/10/29 03:20:01;;;;;;;2.13;1.50;;;;;;;;;;5056092;28;20591;-79
2023/10/29 03:22:28;;;;;;;4.57;1.40;;;;;;;;;;5068332;28;20195;-79
2023/10/29 03:24:55;;;;;;;2.07;1.50;;;;;;;;;;5072852;28;20293;-78
2023/10/29 03:27:21;;;;;;;3.33;1.80;;;;;;;;;;5072425;28;21660;-78
2023/10/29 03:29:48;;;;;;;2.13;1.20;;;;;;;;;;5072833;28;20724;-78
2023/10/29 03:32:17;;;;;;;3.70;1.43;;;;;;;;;;5071820;28;20205;-78
2023/10/29 03:34:43;;;;;;;1.90;1.50;;;;;;;;;;5072612;28;20585;-78
2023/10/29 03:37:10;;;;;;;2.87;1.63;;;;;;;;;;5045830;28;20200;-78
2023/10/29 03:39:37;;;;;;;5.17;1.80;;;;;;;;;;5072695;28;20211;-78
2023/10/29 03:42:04;;;;;;;2.13;1.93;;;;;;;;;;5059049;28;20207;-78
2023/10/29 03:44:32;;;;;;;1.37;1.27;;;;;;;;;;5072576;28;20214;-78
2023/10/29 03:46:59;;;;;;;2.70;1.93;;;;;;;;;;5072012;28;20209;-78
2023/10/29 03:49:28;;;;;;;3.00;1.43;;;;;;;;;;5067479;28;20733;-78
2023/10/29 03:51:54;;;;;;;2.00;1.27;;;;;;;;;;5072931;28;20231;-78
2023/10/29 03:54:21;;;;;;;6.37;2.10;;;;;;;;;;5072750;28;20197;-79
2023/10/29 03:56:48;;;;;;;4.73;2.10;;;;;;;;;;5072292;28;20218;-78
2023/10/29 03:59:15;;;;;;;3.47;1.80;;;;;;;;;;5071986;28;20255;-76
2023/10/29 04:01:42;;;;;;;2.30;1.60;;;;;;;;;;5071357;28;20695;-79
2023/10/29 04:04:09;;;;;;;3.20;2.30;;;;;;;;;;5071693;28;20210;-78
2023/10/29 04:06:37;;;;;;;2.77;2.00;;;;;;;;;;5062458;28;20209;-79
2023/10/29 04:09:04;;;;;;;5.00;2.83;;;;;;;;;;5067770;28;20206;-79
2023/10/29 04:11:32;;;;;;;6.00;2.73;;;;;;;;;;5069654;28;20982;-79
2023/10/29 04:13:59;;;;;;;3.70;2.57;;;;;;;;;;5068453;28;20205;-78
2023/10/29 04:16:26;;;;;;;2.50;2.27;;;;;;;;;;5071573;28;20251;-78
2023/10/29 04:18:53;;;;;;;3.77;2.37;;;;;;;;;;5065140;28;20259;-79
2023/10/29 04:21:20;;;;;;;4.17;2.23;;;;;;;;;;5071134;28;20207;-78
2023/10/29 04:23:49;;;;;;;2.20;1.70;;;;;;;;;;5071723;28;20205;-78
2023/10/29 04:26:17;;;;;;;2.83;1.70;;;;;;;;;;5071543;28;20263;-79
2023/10/29 04:28:45;;;;;;;1.67;1.53;;;;;;;;;;5071238;28;20205;-78
2023/10/29 04:31:12;;;;;;;3.17;1.90;;;;;;;;;;5071153;28;20229;-79
2023/10/29 04:33:39;;;;;;;3.23;1.80;;;;;;;;;;5071202;28;20201;-79
2023/10/29 04:36:06;;;;;;;1.30;1.20;;;;;;;;;;5071057;28;20234;-79
2023/10/29 04:38:35;;;;;;;2.30;1.67;;;;;;;;;;5071623;28;20727;-79
2023/10/29 04:41:04;;;;;;;4.03;2.83;;;;;;;;;;5071272;28;20202;-78
2023/10/29 04:43:31;;;;;;;5.07;3.17;;;;;;;;;;5064394;28;20197;-79
2023/10/29 04:45:57;;;;;;;4.20;3.47;;;;;;;;;;5068230;28;20690;-78
2023/10/29 04:48:24;;;;;;;3.67;2.60;;;;;;;;;;5070643;28;20199;-79
2023/10/29 04:50:51;;;;;;;3.53;2.63;;;;;;;;;;5070953;28;20231;-78
2023/10/29 04:53:18;;;;;;;2.30;2.10;;;;;;;;;;5071191;28;20205;-78
2023/10/29 04:55:45;;;;;;;2.07;1.63;;;;;;;;;;5068892;28;20208;-78
2023/10/29 04:58:13;;;;;;;1.50;1.40;;;;;;;;;;5053654;28;20684;-78
2023/10/29 05:00:40;;;;;;;4.73;2.80;;;;;;;;;;5059857;28;20290;-78
2023/10/29 05:03:07;;;;;;;7.60;5.40;;;;;;;;;;5057009;28;20202;-78
2023/10/29 05:05:34;;;;;;;14.70;8.10;;;;;;;;;;5068947;28;20220;-79
2023/10/29 05:08:01;;;;;;;7.33;4.77;;;;;;;;;;5061072;28;20564;-78
2023/10/29 05:10:28;;;;;;;5.63;2.47;;;;;;;;;;5061374;28;20227;-78
2023/10/29 05:12:57;;;;;;;12.37;7.60;;;;;;;;;;5058470;28;20283;-78
2023/10/29 05:15:25;;;;;;;12.17;7.30;;;;;;;;;;5049236;28;20716;-79
2023/10/29 05:17:52;;;;;;;6.90;3.67;;;;;;;;;;5050512;28;20210;-78
2023/10/29 05:20:18;;;;;;;4.50;3.27;;;;;;;;;;5064625;28;20209;-78
2023/10/29 05:22:45;;;;;;;4.77;3.13;;;;;;;;;;5065866;28;20214;-78
2023/10/29 05:25:12;;;;;;;3.33;2.57;;;;;;;;;;5070074;28;20208;-78
2023/10/29 05:27:39;;;;;;;5.60;2.63;;;;;;;;;;5069840;28;20201;-78
2023/10/29 05:30:07;;;;;;;8.27;4.10;;;;;;;;;;5067924;28;20223;-78
2023/10/29 05:32:35;;;;;;;7.57;3.07;;;;;;;;;;5057357;28;20634;-79
2023/10/29 05:35:03;;;;;;;3.57;1.87;;;;;;;;;;5062680;28;20198;-78
2023/10/29 05:37:29;;;;;;;4.40;1.70;;;;;;;;;;5063297;28;20672;-78
2023/10/29 05:39:56;;;;;;;3.50;1.50;;;;;;;;;;5063653;28;20205;-78
2023/10/29 05:42:23;;;;;;;5.87;3.43;;;;;;;;;;5061289;28;20676;-78
2023/10/29 05:44:50;;;;;;;4.93;3.40;;;;;;;;;;5061282;28;20696;-78
2023/10/29 05:47:16;;;;;;;4.73;3.07;;;;;;;;;;5063114;28;20594;-78
2023/10/29 05:49:45;;;;;;;7.80;3.00;;;;;;;;;;5064158;28;20619;-78
2023/10/29 05:52:11;;;;;;;7.50;3.50;;;;;;;;;;5059000;28;20201;-78
2023/10/29 05:54:38;;;;;;;5.00;3.20;;;;;;;;;;5058811;28;20212;-78
2023/10/29 05:57:06;;;;;;;4.03;2.60;;;;;;;;;;5060564;28;20243;-78
2023/10/29 05:59:33;;;;;;;3.13;2.40;;;;;;;;;;5061375;28;20201;-77
2023/10/29 06:02:00;;;;;;;3.63;2.33;;;;;;;;;;5059226;28;20207;-76
2023/10/29 06:04:27;;;;;;;5.17;2.77;;;;;;;;;;5060132;28;20633;-77
2023/10/29 06:06:55;;;;;;;3.90;2.33;;;;;;;;;;5060364;28;20197;-77
2023/10/29 06:09:22;;;;;;;6.00;2.00;;;;;;;;;;5060742;28;20676;-77
2023/10/29 06:11:49;;;;;;;5.03;2.50;;;;;;;;;;5059420;28;20736;-77
2023/10/29 06:14:15;;;;;;;3.07;2.77;;;;;;;;;;5060127;28;20197;-77
2023/10/29 06:16:42;;;;;;;3.03;1.83;;;;;;;;;;5060073;28;20196;-77
2023/10/29 06:19:09;;;;;;;2.83;1.47;;;;;;;;;;5064087;28;20297;-77
2023/10/29 06:21:36;;;;;;;2.23;1.70;;;;;;;;;;5060606;28;20295;-77
2023/10/29 06:24:05;;;;;;;2.60;1.60;;;;;;;;;;5060362;28;20268;-77
2023/10/29 06:26:32;;;;;;;2.00;1.80;;;;;;;;;;5064993;28;20204;-78
2023/10/29 06:28:59;;;;;;;3.83;2.30;;;;;;;;;;5062286;28;20213;-77
2023/10/29 06:31:29;;;;;;;3.50;1.73;;;;;;;;;;5062691;28;20612;-77
2023/10/29 06:33:56;;;;;;;2.60;2.07;;;;;;;;;;5061006;28;20207;-76
2023/10/29 06:36:23;;;;;;;2.67;2.03;;;;;;;;;;5065478;28;20581;-76
2023/10/29 06:38:50;;;;;;;2.00;1.90;;;;;;;;;;5064676;28;20694;-76
2023/10/29 06:41:18;;;;;;;3.60;2.00;;;;;;;;;;5063110;28;20505;-75
2023/10/29 06:43:45;;;;;;;4.67;3.00;;;;;;;;;;5060864;28;20205;-74
2023/10/29 06:46:11;;;;;;;8.33;2.80;;;;;;;;;;5062616;28;20213;-79
2023/10/29 06:48:41;;;;;;;3.80;1.90;;;;;;;;;;5060801;28;20771;-78
2023/10/29 06:51:08;;;;;;;6.60;2.10;;;;;;;;;;5061459;28;20667;-78
2023/10/29 06:53:35;;;;;;;4.47;1.70;;;;;;;;;;5073080;28;20209;-78
2023/10/29 06:56:03;;;;;;;3.37;1.67;;;;;;;;;;5072216;28;20201;-78
2023/10/29 06:58:31;;;;;;;9.63;1.93;;;;;;;;;;5071648;28;20213;-77
2023/10/29 07:01:03;;;;;;;3.47;1.80;;;;;;;;;;5072420;28;20201;-77
2023/10/29 07:03:30;;;;;;;4.20;2.07;;;;;;;;;;5072236;28;20215;-77
2023/10/29 07:06:05;;;;;;;2.47;1.50;;;;;;;;;;5065454;28;20237;-78
2023/10/29 07:08:32;;;;;;;4.00;2.17;;;;;;;;;;5054162;28;20201;-77
2023/10/29 07:11:00;;;;;;;5.03;1.53;;;;;;;;;;5063695;28;20715;-77
2023/10/29 07:13:26;;;;;;;2.67;1.90;;;;;;;;;;5065472;28;20193;-77
2023/10/29 07:15:55;;;;;;;3.27;1.90;;;;;;;;;;5062778;28;20595;-78
2023/10/29 07:18:23;;;;;;;3.43;2.13;;;;;;;;;;5066736;28;20197;-77
2023/10/29 07:20:52;;;;;;;5.20;2.23;;;;;;;;;;5065382;28;20212;-77
2023/10/29 07:23:19;;;;;;;6.50;2.40;;;;;;;;;;5066498;28;20205;-77
2023/10/29 07:25:47;;;;;;;3.40;1.90;;;;;;;;;;5064260;28;20208;-77
2023/10/29 07:28:14;;;;;;;3.77;1.60;;;;;;;;;;5070463;28;20229;-76
2023/10/29 07:30:41;;;;;;;3.60;2.07;;;;;;;;;;5067519;28;20225;-76
2023/10/29 07:33:10;;;;;;;2.87;2.20;;;;;;;;;;5066085;28;20768;-76
2023/10/29 07:35:37;;;;;;;17.03;3.17;;;;;;;;;;5068153;28;20217;-77
2023/10/29 07:38:04;;;;;;;4.77;2.30;;;;;;;;;;5067666;28;20733;-76
2023/10/29 07:40:33;;;;;;;5.70;1.87;;;;;;;;;;5063845;28;20205;-76
2023/10/29 07:43:00;;;;;;;7.03;1.90;;;;;;;;;;5070630;28;20927;-76
2023/10/29 07:45:27;;;;;;;3.63;2.07;;;;;;;;;;5065228;28;20665;-78
2023/10/29 07:47:54;;;;;;;3.43;1.87;;;;;;;;;;5067346;28;20592;-76
2023/10/29 07:50:22;;;;;;;2.47;1.67;;;;;;;;;;5072362;28;20243;-75
2023/10/29 07:52:49;;;;;;;3.63;1.60;;;;;;;;;;5071240;28;20208;-76
2023/10/29 07:55:16;;;;;;;3.17;2.07;;;;;;;;;;5072370;28;20276;-76
2023/10/29 07:57:43;;;;;;;3.47;1.90;;;;;;;;;;5066058;28;20734;-76
2023/10/29 08:00:13;;;;;;;3.00;2.13;;;;;;;;;;5071866;28;20686;-76
2023/10/29 08:02:40;;;;;;;7.60;2.10;;;;;;;;;;5069252;28;20208;-76
2023/10/29 08:05:08;;;;;;;5.40;2.30;;;;;;;;;;5069940;28;20707;-76
2023/10/29 08:07:36;;;;;;;3.50;2.30;;;;;;;;;;5069920;28;20201;-76
2023/10/29 08:10:03;;;;;;;3.87;2.33;;;;;;;;;;5068903;28;20208;-75
2023/10/29 08:12:30;;;;;;;4.43;2.13;;;;;;;;;;5071983;28;20308;-76
2023/10/29 08:14:57;;;;;;;8.03;2.37;;;;;;;;;;5071730;28;20215;-76
2023/10/29 08:17:24;;;;;;;4.73;2.10;;;;;;;;;;5071562;28;20255;-76
2023/10/29 08:19:52;;;;;;;4.57;2.43;;;;;;;;;;5051759;28;20207;-76
2023/10/29 08:22:19;;;;;;;3.93;2.30;;;;;;;;;;5071059;28;20209;-76
2023/10/29 08:24:47;;;;;;;1.53;1.43;;;;;;;;;;5068587;28;20704;-76
2023/10/29 08:27:14;;;;;;;6.70;2.20;;;;;;;;;;5068206;28;20204;-76
2023/10/29 08:29:43;;;;;;;4.93;2.23;;;;;;;;;;5071814;28;20209;-76
2023/10/29 08:32:10;;;;;;;9.43;2.40;;;;;;;;;;5071407;28;20229;-76
2023/10/29 08:34:36;;;;;;;6.80;2.27;;;;;;;;;;5071252;28;20205;-76
2023/10/29 08:37:03;;;;;;;10.17;3.57;;;;;;;;;;5070976;28;20311;-76
2023/10/29 08:39:31;;;;;;;5.23;2.23;;;;;;;;;;5071518;28;20699;-76
2023/10/29 08:42:00;;;;;;;3.87;1.60;;;;;;;;;;5070959;28;20224;-76
2023/10/29 08:44:27;;;;;;;2.23;1.47;;;;;;;;;;5071896;28;20212;-76
2023/10/29 08:46:54;;;;;;;4.23;2.23;;;;;;;;;;5070184;28;20205;-75
2023/10/29 08:49:21;;;;;;;2.10;1.80;;;;;;;;;;5071143;28;20197;-75
2023/10/29 08:51:47;;;;;;;4.33;2.33;;;;;;;;;;5070920;28;20241;-76
2023/10/29 08:54:14;;;;;;;4.87;2.00;;;;;;;;;;5060747;28;20204;-76
2023/10/29 08:56:41;;;;;;;3.33;1.80;;;;;;;;;;5055056;28;20221;-75
2023/10/29 08:59:11;;;;;;;6.47;2.00;;;;;;;;;;5059887;28;20217;-76
2023/10/29 09:01:37;;;;;;;5.73;2.07;;;;;;;;;;5062797;28;20205;-76
2023/10/29 09:04:04;;;;;;;4.17;1.80;;;;;;;;;;5069147;28;20227;-76
2023/10/29 09:06:32;;;;;;;8.80;3.97;;;;;;;;;;5069971;28;20295;-76
2023/10/29 09:08:59;;;;;;;3.47;1.60;;;;;;;;;;5071243;28;20198;-76
2023/10/29 09:11:26;;;;;;;6.50;2.10;;;;;;;;;;5064241;28;20231;-76
2023/10/29 09:13:53;;;;;;;1.90;1.40;;;;;;;;;;5064790;28;20194;-76
2023/10/29 09:16:21;;;;;;;2.80;1.67;;;;;;;;;;5068666;28;20635;-76
2023/10/29 09:18:48;;;;;;;4.30;1.77;;;;;;;;;;5069390;28;20228;-76
2023/10/29 09:21:15;;;;;;;4.67;1.80;;;;;;;;;;5070689;28;20205;-76
2023/10/29 09:23:43;;;;;;;2.53;1.50;;;;;;;;;;5070825;28;20205;-76
2023/10/29 09:26:10;;;;;;;3.53;2.20;;;;;;;;;;5065318;28;20683;-77
2023/10/29 09:28:37;;;;;;;2.93;1.30;;;;;;;;;;5062420;28;20202;-76
2023/10/29 09:31:04;;;;;;;3.53;1.60;;;;;;;;;;5063496;28;20739;-76
2023/10/29 09:33:32;;;;;;;3.47;1.50;;;;;;;;;;5067445;28;20698;-76
2023/10/29 09:36:00;;;;;;;3.13;2.00;;;;;;;;;;5065484;28;20217;-76
2023/10/29 09:38:27;;;;;;;2.93;2.13;;;;;;;;;;5066272;28;20678;-76
2023/10/29 09:40:55;;;;;;;5.43;1.90;;;;;;;;;;5066312;28;20244;-76
2023/10/29 09:43:24;;;;;;;5.70;2.20;;;;;;;;;;5049259;28;20311;-76
2023/10/29 09:45:53;;;;;;;2.77;1.70;;;;;;;;;;5051102;28;20235;-76
2023/10/29 09:48:20;;;;;;;2.40;1.73;;;;;;;;;;5055601;28;20200;-77
2023/10/29 09:50:48;;;;;;;3.93;1.90;;;;;;;;;;5066065;28;20311;-77
2023/10/29 09:53:16;;;;;;;5.37;1.67;;;;;;;;;;5065824;28;20688;-77
2023/10/29 09:55:43;;;;;;;3.73;1.77;;;;;;;;;;5069550;28;20571;-77
2023/10/29 09:58:10;;;;;;;2.90;2.03;;;;;;;;;;5070040;28;20205;-77
2023/10/29 10:00:37;;;;;;;11.20;2.70;;;;;;;;;;5070158;28;20680;-76
2023/10/29 10:03:05;;;;;;;6.30;1.90;;;;;;;;;;5069080;28;20591;-77
2023/10/29 10:05:32;;;;;;;2.13;1.20;;;;;;;;;;5064714;28;20215;-75
2023/10/29 10:08:01;;;;;;;2.63;1.70;;;;;;;;;;5069119;28;20684;-76
2023/10/29 10:10:38;;;;;;;5.43;2.20;;;;;;;;;;5069110;28;20710;-76
2023/10/29 10:13:05;;;;;;;4.13;2.17;;;;;;;;;;5072078;28;20247;-76
2023/10/29 10:15:32;;;;;;;1.67;1.57;;;;;;;;;;5073293;28;20588;-76
2023/10/29 10:18:00;;;;;;;3.80;1.50;;;;;;;;;;5073045;28;20209;-76
2023/10/29 10:20:28;;;;;;;5.47;1.80;;;;;;;;;;5073394;28;20212;-75
2023/10/29 10:22:58;;;;;;;2.13;1.30;;;;;;;;;;5073457;28;20251;-75
2023/10/29 10:25:27;;;;;;;2.23;1.87;;;;;;;;;;5070793;28;20592;-75
2023/10/29 10:27:55;;;;;;;1.97;1.53;;;;;;;;;;5069617;28;20212;-75
2023/10/29 10:30:30;;;;;;;1.77;1.20;;;;;;;;;;5073051;28;20204;-75
2023/10/29 10:33:09;;;;;;;4.53;1.70;;;;;;;;;;5063824;28;20636;-75
2023/10/29 10:35:40;;;;;;;2.30;1.40;;;;;;;;;;5049032;28;20634;-76
2023/10/29 10:38:07;;;;;;;2.50;1.30;;;;;;;;;;5073603;28;20205;-76
2023/10/29 10:40:36;;;;;;;2.30;1.53;;;;;;;;;;5071387;28;20223;-76
2023/10/29 10:43:02;;;;;;;1.57;1.30;;;;;;;;;;5068871;28;20291;-76
2023/10/29 10:45:30;;;;;;;3.73;1.70;;;;;;;;;;5073005;28;20197;-78
2023/10/29 10:48:00;;;;;;;4.73;1.80;;;;;;;;;;5071841;28;20626;-77
2023/10/29 10:50:28;;;;;;;2.47;1.30;;;;;;;;;;5073147;28;20315;-77
2023/10/29 10:52:56;;;;;;;2.40;1.50;;;;;;;;;;5060553;28;20654;-78
2023/10/29 10:55:25;;;;;;;2.57;1.93;;;;;;;;;;5073295;28;20213;-78
2023/10/29 10:57:53;;;;;;;6.50;1.80;;;;;;;;;;5058672;28;20197;-78
2023/10/29 11:00:21;;;;;;;2.20;1.50;;;;;;;;;;5073049;28;20684;-78
2023/10/29 11:02:49;;;;;;;6.03;1.77;;;;;;;;;;5073644;28;20232;-78
2023/10/29 11:05:17;;;;;;;3.43;1.60;;;;;;;;;;5073515;28;20220;-78
2023/10/29 11:07:44;;;;;;;4.07;1.83;;;;;;;;;;5072834;28;20213;-78
2023/10/29 11:10:13;;;;;;;3.27;1.70;;;;;;;;;;5073577;28;20270;-78
2023/10/29 11:12:40;;;;;;;3.63;1.63;;;;;;;;;;5072061;28;20318;-79
2023/10/29 11:15:16;;;;;;;2.30;1.40;;;;;;;;;;5072695;28;20201;-79
2023/10/29 11:18:06;;;;;;;1.90;1.40;;;;;;;;;;5046541;28;20215;-79
2023/10/29 11:20:55;;;;;;;5.03;1.93;;;;;;;;;;5062316;28;20193;-78
2023/10/29 11:23:26;;;;;;;2.07;1.77;;;;;;;;;;5072394;28;20200;-79
2023/10/29 11:26:19;;;;;;;1.20;1.10;;;;;;;;;;5073049;28;20243;-78
2023/10/29 11:28:46;;;;;;;4.50;1.53;;;;;;;;;;5072228;28;20233;-79
2023/10/29 11:31:15;;;;;;;3.57;1.57;;;;;;;;;;5072797;28;20572;-78
2023/10/29 11:33:43;;;;;;;3.63;1.53;;;;;;;;;;5073372;28;20220;-78
2023/10/29 11:36:29;;;;;;;4.47;1.50;;;;;;;;;;5060767;28;20654;-79
2023/10/29 11:39:36;;;;;;;6.60;1.63;;;;;;;;;;5049376;28;20212;-78
2023/10/29 11:42:28;;;;;;;3.90;1.50;;;;;;;;;;5072987;28;20382;-78
2023/10/29 11:45:33;;;;;;;1.57;1.33;;;;;;;;;;5072573;28;20254;-78
2023/10/29 11:48:15;;;;;;;3.57;1.77;;;;;;;;;;5063430;28;20200;-78
2023/10/29 11:50:43;;;;;;;2.30;1.50;;;;;;;;;;5058063;28;20671;-81
2023/10/29 11:53:23;;;;;;;3.90;1.70;;;;;;;;;;5057051;28;20221;-78
2023/10/29 11:55:51;;;;;;;2.00;1.50;;;;;;;;;;5071624;28;20291;-77
2023/10/29 11:58:20;;;;;;;2.23;1.43;;;;;;;;;;5059020;28;20637;-78
2023/10/29 12:00:47;;;;;;;3.47;1.90;;;;;;;;;;5069407;28;20209;-78
2023/10/29 12:03:18;;;;;;;3.57;1.60;;;;;;;;;;5068588;28;20703;-79
2023/10/29 12:05:48;;;;;;;4.23;1.40;;;;;;;;;;5070357;28;20201;-77
2023/10/29 12:08:15;;;;;;;2.87;1.53;;;;;;;;;;5063757;28;20202;-77
2023/10/29 12:10:46;;;;;;;5.03;1.73;;;;;;;;;;5068597;28;20208;-78
2023/10/29 12:13:13;;;;;;;1.90;1.20;;;;;;;;;;5064178;28;20311;-78
2023/10/29 12:15:40;;;;;;;2.60;1.47;;;;;;;;;;5069223;28;20205;-78
2023/10/29 12:18:07;;;;;;;4.40;1.87;;;;;;;;;;5066343;28;20208;-77
2023/10/29 12:20:35;;;;;;;2.43;1.20;;;;;;;;;;5069709;28;20212;-77
2023/10/29 12:23:04;;;;;;;1.93;1.57;;;;;;;;;;5066661;28;20201;-78
2023/10/29 12:25:31;;;;;;;3.73;1.67;;;;;;;;;;5069851;28;20254;-77
2023/10/29 12:27:59;;;;;;;4.13;2.00;;;;;;;;;;5069731;28;20193;-77
2023/10/29 12:30:36;;;;;;;12.97;11.00;;;;;;;;;;5071057;28;20690;-78
2023/10/29 12:33:18;;;;;;;7.47;6.80;;;;;;;;;;5048548;28;20649;-78
2023/10/29 12:35:48;;;;;;;4.27;1.77;;;;;;;;;;5070331;28;20258;-78
2023/10/29 12:38:15;;;;;;;3.73;1.57;;;;;;;;;;5071244;28;20683;-77
2023/10/29 12:41:11;;;;;;;2.77;1.67;;;;;;;;;;5071737;28;20571;-78
2023/10/29 12:43:39;;;;;;;2.10;1.60;;;;;;;;;;5070184;28;20208;-77
2023/10/29 12:46:07;;;;;;;2.93;2.00;;;;;;;;;;5071765;28;20575;-78
2023/10/29 12:48:35;;;;;;;11.57;10.47;;;;;;;;;;5071082;28;20205;-78
2023/10/29 12:51:03;;;;;;;5.93;2.00;;;;;;;;;;5071221;28;20233;-77
2023/10/29 12:53:31;;;;;;;4.03;2.30;;;;;;;;;;5070930;28;20216;-78
2023/10/29 12:55:59;;;;;;;1.93;1.80;;;;;;;;;;5071007;28;20201;-78
2023/10/29 12:58:28;;;;;;;2.67;1.30;;;;;;;;;;5070582;28;20208;-78
2023/10/29 13:00:59;;;;;;;5.33;1.67;;;;;;;;;;5071187;28;20213;-78
2023/10/29 13:03:26;;;;;;;3.77;1.77;;;;;;;;;;5070896;28;20212;-78
2023/10/29 13:05:54;;;;;;;4.17;2.00;;;;;;;;;;5071159;28;20200;-78
2023/10/29 13:08:24;;;;;;;12.50;10.57;;;;;;;;;;5071060;28;20208;-78
2023/10/29 13:10:52;;;;;;;4.90;2.13;;;;;;;;;;5070322;28;20189;-78
2023/10/29 13:13:18;;;;;;;4.60;1.40;;;;;;;;;;5070494;28;20615;-78
2023/10/29 13:15:45;;;;;;;4.13;1.70;;;;;;;;;;5070843;28;20679;-79
2023/10/29 13:18:14;;;;;;;2.87;2.00;;;;;;;;;;5070314;28;20287;-78
2023/10/29 13:20:41;;;;;;;8.43;5.27;;;;;;;;;;5070796;28;20219;-78
2023/10/29 13:23:08;;;;;;;16.67;11.30;;;;;;;;;;5070775;28;20300;-78
2023/10/29 13:25:36;;;;;;;6.00;4.60;;;;;;;;;;5070053;28;20205;-78
2023/10/29 13:28:03;;;;;;;2.73;1.70;;;;;;;;;;5070600;28;20200;-78
2023/10/29 13:30:30;;;;;;;18.47;11.40;;;;;;;;;;5070399;28;20284;-78
2023/10/29 13:32:58;;;;;;;3.10;1.97;;;;;;;;;;5069685;28;20221;-78
2023/10/29 13:35:24;;;;;;;87.33;65.97;;;;;;;;;;5053910;28;20233;-78
2023/10/29 13:37:51;;;;;;;6.00;3.77;;;;;;;;;;5055737;28;20661;-78
2023/10/29 13:40:18;;;;;;;4.07;1.60;;;;;;;;;;5059899;28;20212;-78
2023/10/29 13:42:47;;;;;;;2.97;1.50;;;;;;;;;;5070382;28;20232;-78
2023/10/29 13:45:14;;;;;;;5.13;2.33;;;;;;;;;;5060990;28;20197;-78
2023/10/29 13:47:41;;;;;;;9.30;3.63;;;;;;;;;;5060943;28;20201;-78
2023/10/29 13:50:09;;;;;;;30.57;22.50;;;;;;;;;;5044040;28;20252;-78
2023/10/29 13:52:35;;;;;;;13.33;5.77;;;;;;;;;;5069911;28;20608;-78
2023/10/29 13:55:04;;;;;;;10.30;4.60;;;;;;;;;;5070798;28;20205;-78
2023/10/29 13:57:31;;;;;;;9.00;5.03;;;;;;;;;;5069903;28;20212;-78
2023/10/29 13:59:59;;;;;;;21.17;10.97;;;;;;;;;;5070808;28;20208;-78
2023/10/29 14:02:26;;;;;;;17.80;8.50;;;;;;;;;;5069522;28;20209;-78
2023/10/29 14:04:53;;;;;;;13.07;5.23;;;;;;;;;;5069965;28;20599;-78
2023/10/29 14:07:20;;;;;;;8.40;4.60;;;;;;;;;;5069828;28;20242;-78
2023/10/29 14:09:46;;;;;;;11.30;4.53;;;;;;;;;;5070586;28;20685;-78
2023/10/29 14:12:13;;;;;;;6.97;3.17;;;;;;;;;;5070042;28;20205;-78
2023/10/29 14:14:40;;;;;;;7.63;3.93;;;;;;;;;;5070223;28;20201;-78
2023/10/29 14:17:08;;;;;;;6.20;3.17;;;;;;;;;;5065498;28;20206;-78
2023/10/29 14:19:37;;;;;;;5.53;2.67;;;;;;;;;;5070367;28;20201;-77
2023/10/29 14:22:04;;;;;;;2.13;1.93;;;;;;;;;;5069764;28;21434;-78
2023/10/29 14:24:31;;;;;;;3.13;1.77;;;;;;;;;;5069903;28;20225;-76
2023/10/29 14:26:58;;;;;;;3.33;1.60;;;;;;;;;;5066738;28;20209;-78
2023/10/29 14:29:25;;;;;;;4.17;1.60;;;;;;;;;;5060155;28;20595;-78
2023/10/29 14:31:53;;;;;;;5.30;2.30;;;;;;;;;;5070093;28;20208;-78
2023/10/29 14:34:22;;;;;;;3.97;1.60;;;;;;;;;;5069996;28;20260;-77
2023/10/29 14:36:48;;;;;;;5.27;1.77;;;;;;;;;;5061295;28;20649;-78
2023/10/29 14:39:15;;;;;;;4.30;1.80;;;;;;;;;;5070475;28;20209;-78
2023/10/29 14:41:42;;;;;;;5.37;1.53;;;;;;;;;;5070086;28;20201;-78
2023/10/29 14:44:09;;;;;;;2.20;1.60;;;;;;;;;;5069872;28;20237;-78
2023/10/29 14:46:37;;;;;;;3.30;1.70;;;;;;;;;;5070215;28;20205;-78
2023/10/29 14:49:05;;;;;;;4.97;2.40;;;;;;;;;;5070054;28;20212;-78